sensor_id;sensor_type;location;lat;lon;timestamp;pressure;altitude;pressure_sealevel;temperature;humidity
60087;BME280;45960;53.630;55.972;2023-04-25T00:00:47;101027.28;;;9.19;47.71
60087;BME280;45960;53.630;55.972;2023-04-25T00:01:48;101048.16;;;9.29;47.80
60087;BME280;45960;53.630;55.972;2023-04-25T00:02:49;101041.13;;;9.28;47.82
60087;BME280;45960;53.630;55.972;2023-04-25T00:03:50;101046.44;;;9.28;47.86
60087;BME280;45960;53.630;55.972;2023-04-25T00:04:51;101032.31;;;9.26;47.76
60087;BME280;45960;53.630;55.972;2023-04-25T00:05:53;101053.66;;;9.26;48.17
60087;BME280;45960;53.630;55.972;2023-04-25T00:06:54;101035.28;;;9.19;47.94
60087;BME280;45960;53.630;55.972;2023-04-25T00:07:55;101039.66;;;9.21;47.79
60087;BME280;45960;53.630;55.972;2023-04-25T00:08:56;101046.84;;;9.18;47.81
60087;BME280;45960;53.630;55.972;2023-04-25T00:09:58;101028.59;;;9.11;47.86
60087;BME280;45960;53.630;55.972;2023-04-25T00:11:00;101039.91;;;9.16;47.76
60087;BME280;45960;53.630;55.972;2023-04-25T00:12:01;101048.91;;;9.13;47.83
60087;BME280;45960;53.630;55.972;2023-04-25T00:13:03;101003.03;;;8.88;47.85
60087;BME280;45960;53.630;55.972;2023-04-25T00:14:04;101060.44;;;9.14;48.09
60087;BME280;45960;53.630;55.972;2023-04-25T00:15:06;101056.97;;;9.12;48.01
60087;BME280;45960;53.630;55.972;2023-04-25T00:16:07;101067.06;;;9.05;48.27
60087;BME280;45960;53.630;55.972;2023-04-25T00:17:08;101052.13;;;9.01;48.15
60087;BME280;45960;53.630;55.972;2023-04-25T00:18:09;101061.06;;;9.00;48.22
60087;BME280;45960;53.630;55.972;2023-04-25T00:19:11;101065.44;;;9.01;48.26
60087;BME280;45960;53.630;55.972;2023-04-25T00:20:14;101058.41;;;9.00;47.92
60087;BME280;45960;53.630;55.972;2023-04-25T00:21:15;101062.00;;;8.99;48.04
60087;BME280;45960;53.630;55.972;2023-04-25T00:22:18;101066.44;;;8.99;48.39
60087;BME280;45960;53.630;55.972;2023-04-25T00:23:19;101059.47;;;8.96;47.97
60087;BME280;45960;53.630;55.972;2023-04-25T00:24:20;101058.69;;;8.94;48.19
60087;BME280;45960;53.630;55.972;2023-04-25T00:25:21;101062.28;;;8.93;48.44
60087;BME280;45960;53.630;55.972;2023-04-25T00:26:23;101064.06;;;8.92;48.50
60087;BME280;45960;53.630;55.972;2023-04-25T00:27:24;101060.56;;;8.92;48.66
60087;BME280;45960;53.630;55.972;2023-04-25T00:28:25;101059.75;;;8.90;48.76
60087;BME280;45960;53.630;55.972;2023-04-25T00:29:26;101065.06;;;8.90;48.59
60087;BME280;45960;53.630;55.972;2023-04-25T00:30:27;101057.22;;;8.87;48.63
60087;BME280;45960;53.630;55.972;2023-04-25T00:31:28;101062.56;;;8.87;48.79
60087;BME280;45960;53.630;55.972;2023-04-25T00:32:29;101055.50;;;8.86;48.81
60087;BME280;45960;53.630;55.972;2023-04-25T00:33:31;101052.03;;;8.84;48.74
60087;BME280;45960;53.630;55.972;2023-04-25T00:34:32;101063.66;;;8.83;48.95
60087;BME280;45960;53.630;55.972;2023-04-25T00:35:34;101059.22;;;8.82;49.01
60087;BME280;45960;53.630;55.972;2023-04-25T00:36:35;101056.56;;;8.82;48.88
60087;BME280;45960;53.630;55.972;2023-04-25T00:37:37;101064.56;;;8.82;48.87
60087;BME280;45960;53.630;55.972;2023-04-25T00:38:38;101053.13;;;8.80;48.89
60087;BME280;45960;53.630;55.972;2023-04-25T00:39:39;101052.19;;;8.81;49.03
60087;BME280;45960;53.630;55.972;2023-04-25T00:40:40;101045.13;;;8.80;49.34
60087;BME280;45960;53.630;55.972;2023-04-25T00:41:45;101059.38;;;8.79;49.18
60087;BME280;45960;53.630;55.972;2023-04-25T00:42:46;101050.72;;;8.73;49.16
60087;BME280;45960;53.630;55.972;2023-04-25T00:43:48;101056.78;;;8.77;49.21
60087;BME280;45960;53.630;55.972;2023-04-25T00:44:52;101056.84;;;8.76;49.17
60087;BME280;45960;53.630;55.972;2023-04-25T00:45:53;101055.19;;;8.73;49.34
60087;BME280;45960;53.630;55.972;2023-04-25T00:46:54;101045.69;;;8.67;49.04
60087;BME280;45960;53.630;55.972;2023-04-25T00:47:56;101051.66;;;8.72;49.14
60087;BME280;45960;53.630;55.972;2023-04-25T00:48:57;101051.72;;;8.71;49.41
60087;BME280;45960;53.630;55.972;2023-04-25T00:49:58;101054.38;;;8.71;49.34
60087;BME280;45960;53.630;55.972;2023-04-25T00:50:59;101050.84;;;8.70;49.15
60087;BME280;45960;53.630;55.972;2023-04-25T00:52:01;101053.63;;;8.69;49.35
60087;BME280;45960;53.630;55.972;2023-04-25T00:53:02;101054.47;;;8.69;49.47
60087;BME280;45960;53.630;55.972;2023-04-25T00:54:04;101049.13;;;8.69;49.45
60087;BME280;45960;53.630;55.972;2023-04-25T00:55:05;101044.81;;;8.67;49.46
60087;BME280;45960;53.630;55.972;2023-04-25T00:56:06;101044.81;;;8.67;49.41
60087;BME280;45960;53.630;55.972;2023-04-25T00:57:07;101043.00;;;8.67;49.54
60087;BME280;45960;53.630;55.972;2023-04-25T00:58:08;101043.09;;;8.66;49.81
60087;BME280;45960;53.630;55.972;2023-04-25T00:59:10;101043.97;;;8.66;49.36
60087;BME280;45960;53.630;55.972;2023-04-25T01:00:11;101036.03;;;8.65;49.35
60087;BME280;45960;53.630;55.972;2023-04-25T01:01:14;101037.81;;;8.64;49.54
60087;BME280;45960;53.630;55.972;2023-04-25T01:02:15;101040.50;;;8.64;49.35
60087;BME280;45960;53.630;55.972;2023-04-25T01:03:17;101036.88;;;8.65;49.56
60087;BME280;45960;53.630;55.972;2023-04-25T01:04:20;101038.78;;;8.63;49.59
60087;BME280;45960;53.630;55.972;2023-04-25T01:05:22;101037.03;;;8.62;49.72
60087;BME280;45960;53.630;55.972;2023-04-25T01:06:23;101044.25;;;8.60;49.73
60087;BME280;45960;53.630;55.972;2023-04-25T01:07:24;101031.84;;;8.59;49.75
60087;BME280;45960;53.630;55.972;2023-04-25T01:08:26;101027.59;;;8.55;49.87
60087;BME280;45960;53.630;55.972;2023-04-25T01:09:27;101033.72;;;8.57;49.89
60087;BME280;45960;53.630;55.972;2023-04-25T01:10:28;101033.72;;;8.57;49.83
60087;BME280;45960;53.630;55.972;2023-04-25T01:11:30;101036.38;;;8.57;49.95
60087;BME280;45960;53.630;55.972;2023-04-25T01:12:31;101031.06;;;8.57;50.00
60087;BME280;45960;53.630;55.972;2023-04-25T01:13:32;101013.75;;;8.47;49.91
60087;BME280;45960;53.630;55.972;2023-04-25T01:14:34;101038.91;;;8.60;49.88
60087;BME280;45960;53.630;55.972;2023-04-25T01:15:35;101037.16;;;8.59;49.94
60087;BME280;45960;53.630;55.972;2023-04-25T01:16:37;101031.84;;;8.59;49.83
60087;BME280;45960;53.630;55.972;2023-04-25T01:17:40;101029.16;;;8.59;49.96
60087;BME280;45960;53.630;55.972;2023-04-25T01:18:41;101038.91;;;8.60;49.80
60087;BME280;45960;53.630;55.972;2023-04-25T01:19:43;101036.25;;;8.60;50.15
60087;BME280;45960;53.630;55.972;2023-04-25T01:20:46;101028.25;;;8.60;50.08
60087;BME280;45960;53.630;55.972;2023-04-25T01:21:48;101033.59;;;8.60;49.96
60087;BME280;45960;53.630;55.972;2023-04-25T01:22:50;101036.31;;;8.59;49.74
60087;BME280;45960;53.630;55.972;2023-04-25T01:23:52;101038.09;;;8.58;49.89
60087;BME280;45960;53.630;55.972;2023-04-25T01:24:55;101043.34;;;8.60;49.89
60087;BME280;45960;53.630;55.972;2023-04-25T01:25:56;101041.63;;;8.59;50.02
60087;BME280;45960;53.630;55.972;2023-04-25T01:26:58;101041.56;;;8.60;49.92
60087;BME280;45960;53.630;55.972;2023-04-25T01:28:01;101037.97;;;8.61;49.72
60087;BME280;45960;53.630;55.972;2023-04-25T01:29:07;101038.78;;;8.63;49.43
60087;BME280;45960;53.630;55.972;2023-04-25T01:30:10;101035.16;;;8.64;49.44
60087;BME280;45960;53.630;55.972;2023-04-25T01:31:12;101043.97;;;8.66;49.28
60087;BME280;45960;53.630;55.972;2023-04-25T01:32:13;101047.44;;;8.68;49.26
60087;BME280;45960;53.630;55.972;2023-04-25T01:33:15;101031.69;;;8.62;49.25
60087;BME280;45960;53.630;55.972;2023-04-25T01:34:16;101035.72;;;8.71;49.16
60087;BME280;45960;53.630;55.972;2023-04-25T01:35:17;101040.06;;;8.73;49.00
60087;BME280;45960;53.630;55.972;2023-04-25T01:36:20;101036.47;;;8.74;49.20
60087;BME280;45960;53.630;55.972;2023-04-25T01:37:22;101036.34;;;8.78;48.89
60087;BME280;45960;53.630;55.972;2023-04-25T01:38:23;101045.13;;;8.80;48.97
60087;BME280;45960;53.630;55.972;2023-04-25T01:39:24;101037.91;;;8.82;49.01
60087;BME280;45960;53.630;55.972;2023-04-25T01:40:26;101042.25;;;8.84;48.76
60087;BME280;45960;53.630;55.972;2023-04-25T01:41:28;101024.72;;;8.79;48.70
60087;BME280;45960;53.630;55.972;2023-04-25T01:42:29;101037.56;;;8.89;48.80
60087;BME280;45960;53.630;55.972;2023-04-25T01:43:31;101033.97;;;8.90;48.85
60087;BME280;45960;53.630;55.972;2023-04-25T01:44:32;101044.56;;;8.92;48.91
60087;BME280;45960;53.630;55.972;2023-04-25T01:45:33;101037.38;;;8.94;49.11
60087;BME280;45960;53.630;55.972;2023-04-25T01:46:34;101039.03;;;8.96;48.96
60087;BME280;45960;53.630;55.972;2023-04-25T01:47:35;101043.34;;;8.99;48.86
60087;BME280;45960;53.630;55.972;2023-04-25T01:48:37;101037.94;;;9.01;48.55
60087;BME280;45960;53.630;55.972;2023-04-25T01:49:38;101036.94;;;9.03;48.66
60087;BME280;45960;53.630;55.972;2023-04-25T01:50:39;101033.16;;;9.07;48.58
60087;BME280;45960;53.630;55.972;2023-04-25T01:51:41;101041.97;;;9.09;48.56
60087;BME280;45960;53.630;55.972;2023-04-25T01:52:42;101040.09;;;9.11;48.77
60087;BME280;45960;53.630;55.972;2023-04-25T01:53:44;101040.91;;;9.13;48.90
60087;BME280;45960;53.630;55.972;2023-04-25T01:54:46;101048.75;;;9.16;48.63
60087;BME280;45960;53.630;55.972;2023-04-25T01:55:48;101037.09;;;9.19;48.85
60087;BME280;45960;53.630;55.972;2023-04-25T01:56:52;101041.41;;;9.22;48.58
60087;BME280;45960;53.630;55.972;2023-04-25T01:57:55;101031.59;;;9.22;48.86
60087;BME280;45960;53.630;55.972;2023-04-25T01:59:05;101041.25;;;9.25;48.72
60087;BME280;45960;53.630;55.972;2023-04-25T02:00:25;101038.59;;;9.25;48.82
60087;BME280;45960;53.630;55.972;2023-04-25T02:01:26;101041.88;;;9.30;48.77
60087;BME280;45960;53.630;55.972;2023-04-25T02:02:45;101040.00;;;9.32;48.82
60087;BME280;45960;53.630;55.972;2023-04-25T02:03:55;101042.53;;;9.35;48.69
60087;BME280;45960;53.630;55.972;2023-04-25T02:05:06;101038.78;;;9.39;48.81
60087;BME280;45960;53.630;55.972;2023-04-25T02:06:09;101047.59;;;9.41;48.48
60087;BME280;45960;53.630;55.972;2023-04-25T02:07:13;101044.84;;;9.43;48.66
60087;BME280;45960;53.630;55.972;2023-04-25T02:08:22;101050.88;;;9.46;48.12
60087;BME280;45960;53.630;55.972;2023-04-25T02:09:24;101052.47;;;9.50;48.11
60087;BME280;45960;53.630;55.972;2023-04-25T02:10:29;101059.38;;;9.54;47.97
60087;BME280;45960;53.630;55.972;2023-04-25T02:11:52;101048.84;;;9.51;48.05
60087;BME280;45960;53.630;55.972;2023-04-25T02:13:09;101057.34;;;9.59;48.09
60087;BME280;45960;53.630;55.972;2023-04-25T02:14:31;101058.94;;;9.63;48.27
60087;BME280;45960;53.630;55.972;2023-04-25T02:15:50;101052.50;;;9.68;48.32
60087;BME280;45960;53.630;55.972;2023-04-25T02:16:53;101054.06;;;9.72;48.22
60087;BME280;45960;53.630;55.972;2023-04-25T02:17:54;101054.72;;;9.77;48.30
60087;BME280;45960;53.630;55.972;2023-04-25T02:18:56;101065.19;;;9.81;48.20
60087;BME280;45960;53.630;55.972;2023-04-25T02:19:57;101059.63;;;9.86;48.32
60087;BME280;45960;53.630;55.972;2023-04-25T02:20:59;101073.56;;;9.91;48.28
60087;BME280;45960;53.630;55.972;2023-04-25T02:22:00;101069.84;;;9.95;47.98
60087;BME280;45960;53.630;55.972;2023-04-25T02:23:02;101067.81;;;10.00;47.83
60087;BME280;45960;53.630;55.972;2023-04-25T02:24:04;101064.88;;;10.05;47.56
60087;BME280;45960;53.630;55.972;2023-04-25T02:25:05;101073.47;;;10.12;47.51
60087;BME280;45960;53.630;55.972;2023-04-25T02:26:07;101066.16;;;10.15;47.32
60087;BME280;45960;53.630;55.972;2023-04-25T02:27:07;101073.84;;;10.21;47.12
60087;BME280;45960;53.630;55.972;2023-04-25T02:28:10;101059.09;;;10.14;47.06
60087;BME280;45960;53.630;55.972;2023-04-25T02:29:11;101077.03;;;10.29;46.70
60087;BME280;45960;53.630;55.972;2023-04-25T02:30:13;101077.56;;;10.36;46.63
60087;BME280;45960;53.630;55.972;2023-04-25T02:31:14;101079.94;;;10.42;46.20
60087;BME280;45960;53.630;55.972;2023-04-25T02:32:15;101083.25;;;10.47;46.40
60087;BME280;45960;53.630;55.972;2023-04-25T02:33:16;101082.91;;;10.53;46.08
60087;BME280;45960;53.630;55.972;2023-04-25T02:34:17;101080.88;;;10.59;46.01
60087;BME280;45960;53.630;55.972;2023-04-25T02:35:18;101076.22;;;10.62;45.67
60087;BME280;45960;53.630;55.972;2023-04-25T02:36:20;101089.25;;;10.68;45.74
60087;BME280;45960;53.630;55.972;2023-04-25T02:37:23;101089.88;;;10.73;45.64
60087;BME280;45960;53.630;55.972;2023-04-25T02:38:24;101086.09;;;10.78;45.52
60087;BME280;45960;53.630;55.972;2023-04-25T02:39:25;101088.53;;;10.82;45.33
60087;BME280;45960;53.630;55.972;2023-04-25T02:40:27;101088.19;;;10.88;45.38
60087;BME280;45960;53.630;55.972;2023-04-25T02:41:28;101090.53;;;10.94;45.33
60087;BME280;45960;53.630;55.972;2023-04-25T02:42:30;101092.72;;;11.04;45.26
60087;BME280;45960;53.630;55.972;2023-04-25T02:43:32;101088.94;;;11.08;44.88
60087;BME280;45960;53.630;55.972;2023-04-25T02:44:33;101085.16;;;11.12;44.98
60087;BME280;45960;53.630;55.972;2023-04-25T02:45:34;101095.50;;;11.18;44.67
60087;BME280;45960;53.630;55.972;2023-04-25T02:46:35;101097.91;;;11.23;44.57
60087;BME280;45960;53.630;55.972;2023-04-25T02:47:36;101079.91;;;11.26;44.57
60087;BME280;45960;53.630;55.972;2023-04-25T02:48:38;101090.25;;;11.32;44.22
60087;BME280;45960;53.630;55.972;2023-04-25T02:49:38;101088.09;;;11.39;44.35
60087;BME280;45960;53.630;55.972;2023-04-25T02:50:40;101089.50;;;11.46;44.13
60087;BME280;45960;53.630;55.972;2023-04-25T02:51:41;101090.84;;;11.53;43.98
60087;BME280;45960;53.630;55.972;2023-04-25T02:52:42;101076.72;;;11.51;43.82
60087;BME280;45960;53.630;55.972;2023-04-25T02:53:51;101085.06;;;11.61;43.66
60087;BME280;45960;53.630;55.972;2023-04-25T02:54:52;101091.03;;;11.66;43.54
60087;BME280;45960;53.630;55.972;2023-04-25T02:55:53;101090.69;;;11.72;43.59
60087;BME280;45960;53.630;55.972;2023-04-25T02:56:54;101092.06;;;11.79;43.32
60087;BME280;45960;53.630;55.972;2023-04-25T02:58:00;101093.47;;;11.86;43.04
60087;BME280;45960;53.630;55.972;2023-04-25T02:59:23;101095.72;;;11.94;42.84
60087;BME280;45960;53.630;55.972;2023-04-25T03:00:24;101098.88;;;12.01;42.90
60087;BME280;45960;53.630;55.972;2023-04-25T03:01:25;101093.34;;;12.04;42.57
60087;BME280;45960;53.630;55.972;2023-04-25T03:02:26;101100.06;;;12.11;42.37
60087;BME280;45960;53.630;55.972;2023-04-25T03:03:27;101093.50;;;12.17;42.38
60087;BME280;45960;53.630;55.972;2023-04-25T03:04:28;101097.56;;;12.24;42.16
60087;BME280;45960;53.630;55.972;2023-04-25T03:05:29;101098.03;;;12.30;42.11
60087;BME280;45960;53.630;55.972;2023-04-25T03:06:30;101099.38;;;12.38;41.82
60087;BME280;45960;53.630;55.972;2023-04-25T03:07:31;101094.63;;;12.43;42.09
60087;BME280;45960;53.630;55.972;2023-04-25T03:08:32;101098.84;;;12.47;41.76
60087;BME280;45960;53.630;55.972;2023-04-25T03:09:36;101091.41;;;12.52;41.60
60087;BME280;45960;53.630;55.972;2023-04-25T03:10:38;101093.59;;;12.60;41.52
60087;BME280;45960;53.630;55.972;2023-04-25T03:11:43;101096.88;;;12.65;41.39
60087;BME280;45960;53.630;55.972;2023-04-25T03:12:44;101089.50;;;12.68;41.48
60087;BME280;45960;53.630;55.972;2023-04-25T03:13:45;101086.47;;;12.74;41.33
60087;BME280;45960;53.630;55.972;2023-04-25T03:14:46;101094.19;;;12.79;41.34
60087;BME280;45960;53.630;55.972;2023-04-25T03:15:48;101080.13;;;12.75;41.05
60087;BME280;45960;53.630;55.972;2023-04-25T03:16:49;101094.72;;;12.86;41.16
60087;BME280;45960;53.630;55.972;2023-04-25T03:17:51;101087.22;;;12.91;41.18
60087;BME280;45960;53.630;55.972;2023-04-25T03:18:52;101093.16;;;12.96;41.18
60087;BME280;45960;53.630;55.972;2023-04-25T03:19:54;101086.84;;;12.97;41.05
60087;BME280;45960;53.630;55.972;2023-04-25T03:20:55;101077.75;;;12.99;40.90
60087;BME280;45960;53.630;55.972;2023-04-25T03:21:57;101087.78;;;13.10;40.94
60087;BME280;45960;53.630;55.972;2023-04-25T03:22:58;101091.03;;;13.15;40.85
60087;BME280;45960;53.630;55.972;2023-04-25T03:24:00;101084.44;;;13.21;40.75
60087;BME280;45960;53.630;55.972;2023-04-25T03:25:03;101078.88;;;13.24;40.65
60087;BME280;45960;53.630;55.972;2023-04-25T03:26:05;101085.81;;;13.28;40.70
60087;BME280;45960;53.630;55.972;2023-04-25T03:27:06;101082.81;;;13.33;40.83
60087;BME280;45960;53.630;55.972;2023-04-25T03:28:07;101091.44;;;13.38;40.43
60087;BME280;45960;53.630;55.972;2023-04-25T03:29:08;101082.25;;;13.42;40.32
60087;BME280;45960;53.630;55.972;2023-04-25T03:30:10;101078.38;;;13.46;40.37
60087;BME280;45960;53.630;55.972;2023-04-25T03:31:12;101083.56;;;13.49;40.17
60087;BME280;45960;53.630;55.972;2023-04-25T03:32:14;101079.53;;;13.56;40.18
60087;BME280;45960;53.630;55.972;2023-04-25T03:33:15;101083.63;;;13.62;40.25
60087;BME280;45960;53.630;55.972;2023-04-25T03:34:16;101085.16;;;13.66;40.11
60087;BME280;45960;53.630;55.972;2023-04-25T03:35:17;101083.88;;;13.72;40.12
60087;BME280;45960;53.630;55.972;2023-04-25T03:36:18;101089.72;;;13.78;39.75
60087;BME280;45960;53.630;55.972;2023-04-25T03:37:19;101094.91;;;13.81;39.69
60087;BME280;45960;53.630;55.972;2023-04-25T03:38:20;101089.31;;;13.84;39.71
60087;BME280;45960;53.630;55.972;2023-04-25T03:39:21;101084.50;;;13.90;39.72
60087;BME280;45960;53.630;55.972;2023-04-25T03:40:25;101082.47;;;13.93;39.50
60087;BME280;45960;53.630;55.972;2023-04-25T03:41:53;101083.97;;;13.97;39.52
60087;BME280;45960;53.630;55.972;2023-04-25T03:42:55;101089.19;;;14.00;39.42
60087;BME280;45960;53.630;55.972;2023-04-25T03:43:56;101087.00;;;14.05;39.31
60087;BME280;45960;53.630;55.972;2023-04-25T03:44:57;101088.56;;;14.09;39.28
60087;BME280;45960;53.630;55.972;2023-04-25T03:45:58;101082.84;;;14.14;39.22
60087;BME280;45960;53.630;55.972;2023-04-25T03:47:04;101086.00;;;14.21;38.90
60087;BME280;45960;53.630;55.972;2023-04-25T03:48:05;101094.63;;;14.26;39.02
60087;BME280;45960;53.630;55.972;2023-04-25T03:49:07;101088.81;;;14.32;39.03
60087;BME280;45960;53.630;55.972;2023-04-25T03:50:28;101099.34;;;14.35;38.88
60087;BME280;45960;53.630;55.972;2023-04-25T03:51:29;101046.09;;;14.15;38.72
60087;BME280;45960;53.630;55.972;2023-04-25T03:52:31;101092.50;;;14.44;38.60
60087;BME280;45960;53.630;55.972;2023-04-25T03:53:32;101092.19;;;14.48;38.52
60087;BME280;45960;53.630;55.972;2023-04-25T03:54:52;101096.41;;;14.52;38.44
60087;BME280;45960;53.630;55.972;2023-04-25T03:55:55;101096.88;;;14.59;38.63
60087;BME280;45960;53.630;55.972;2023-04-25T03:56:56;101094.25;;;14.58;38.36
60087;BME280;45960;53.630;55.972;2023-04-25T03:58:01;101096.66;;;14.62;38.49
60087;BME280;45960;53.630;55.972;2023-04-25T03:59:02;101097.28;;;14.66;38.13
60087;BME280;45960;53.630;55.972;2023-04-25T04:00:04;101090.72;;;14.70;38.17
60087;BME280;45960;53.630;55.972;2023-04-25T04:01:14;101089.31;;;14.64;38.25
60087;BME280;45960;53.630;55.972;2023-04-25T04:02:15;101092.25;;;14.74;38.30
60087;BME280;45960;53.630;55.972;2023-04-25T04:03:16;101089.13;;;14.80;37.98
60087;BME280;45960;53.630;55.972;2023-04-25T04:04:17;101094.06;;;14.86;38.18
60087;BME280;45960;53.630;55.972;2023-04-25T04:05:18;101086.44;;;14.93;38.02
60087;BME280;45960;53.630;55.972;2023-04-25T04:06:26;101086.84;;;14.99;37.96
60087;BME280;45960;53.630;55.972;2023-04-25T04:07:34;101084.34;;;15.09;37.70
60087;BME280;45960;53.630;55.972;2023-04-25T04:08:41;101087.25;;;15.19;37.68
60087;BME280;45960;53.630;55.972;2023-04-25T04:09:43;101084.13;;;15.25;37.69
60087;BME280;45960;53.630;55.972;2023-04-25T04:10:49;101084.75;;;15.29;37.64
60087;BME280;45960;53.630;55.972;2023-04-25T04:11:50;101086.03;;;15.36;37.37
60087;BME280;45960;53.630;55.972;2023-04-25T04:12:52;101076.13;;;15.36;37.40
60087;BME280;45960;53.630;55.972;2023-04-25T04:13:53;101080.84;;;15.45;37.20
60087;BME280;45960;53.630;55.972;2023-04-25T04:14:54;101078.56;;;15.52;37.17
60087;BME280;45960;53.630;55.972;2023-04-25T04:15:55;101066.94;;;15.52;36.96
60087;BME280;45960;53.630;55.972;2023-04-25T04:16:57;101077.38;;;15.69;36.86
60087;BME280;45960;53.630;55.972;2023-04-25T04:17:58;101080.97;;;15.81;36.83
60087;BME280;45960;53.630;55.972;2023-04-25T04:19:03;101070.34;;;15.91;36.55
60087;BME280;45960;53.630;55.972;2023-04-25T04:20:05;101082.41;;;15.98;36.47
60087;BME280;45960;53.630;55.972;2023-04-25T04:21:07;101069.22;;;16.06;36.37
60087;BME280;45960;53.630;55.972;2023-04-25T04:22:11;101068.75;;;16.12;36.30
60087;BME280;45960;53.630;55.972;2023-04-25T04:23:13;101073.66;;;16.18;36.00
60087;BME280;45960;53.630;55.972;2023-04-25T04:24:14;101067.69;;;16.26;36.01
60087;BME280;45960;53.630;55.972;2023-04-25T04:25:39;101067.09;;;16.33;35.85
60087;BME280;45960;53.630;55.972;2023-04-25T04:27:03;101065.78;;;16.39;35.81
60087;BME280;45960;53.630;55.972;2023-04-25T04:28:10;101067.66;;;16.50;35.80
60087;BME280;45960;53.630;55.972;2023-04-25T04:29:25;101061.53;;;16.59;35.81
60087;BME280;45960;53.630;55.972;2023-04-25T04:30:35;101059.84;;;16.69;35.50
60087;BME280;45960;53.630;55.972;2023-04-25T04:31:41;101062.69;;;16.79;35.34
60087;BME280;45960;53.630;55.972;2023-04-25T04:32:42;101052.25;;;16.86;35.24
60087;BME280;45960;53.630;55.972;2023-04-25T04:33:44;101049.81;;;16.94;35.02
60087;BME280;45960;53.630;55.972;2023-04-25T04:34:45;101061.84;;;17.01;35.15
60087;BME280;45960;53.630;55.972;2023-04-25T04:35:50;101052.25;;;17.08;34.82
60087;BME280;45960;53.630;55.972;2023-04-25T04:36:53;101058.91;;;17.15;34.64
60087;BME280;45960;53.630;55.972;2023-04-25T04:37:54;101042.44;;;17.18;34.69
60087;BME280;45960;53.630;55.972;2023-04-25T04:38:56;101052.25;;;17.31;34.54
60087;BME280;45960;53.630;55.972;2023-04-25T04:40:22;101045.38;;;17.38;34.45
60087;BME280;45960;53.630;55.972;2023-04-25T04:41:35;101047.31;;;17.47;34.36
60087;BME280;45960;53.630;55.972;2023-04-25T04:42:44;101048.28;;;17.57;34.20
60087;BME280;45960;53.630;55.972;2023-04-25T04:44:01;101041.50;;;17.63;33.89
60087;BME280;45960;53.630;55.972;2023-04-25T04:45:23;101053.28;;;17.73;33.46
60087;BME280;45960;53.630;55.972;2023-04-25T04:47:02;101052.38;;;17.84;33.47
60087;BME280;45960;53.630;55.972;2023-04-25T04:48:27;101048.94;;;17.93;33.36
60087;BME280;45960;53.630;55.972;2023-04-25T04:49:28;101055.03;;;18.06;33.11
60087;BME280;45960;53.630;55.972;2023-04-25T04:50:50;101046.25;;;18.14;32.85
60087;BME280;45960;53.630;55.972;2023-04-25T04:52:13;101047.31;;;18.23;32.73
60087;BME280;45960;53.630;55.972;2023-04-25T04:53:34;101047.25;;;18.34;32.53
60087;BME280;45960;53.630;55.972;2023-04-25T04:54:56;101039.88;;;18.36;32.37
60087;BME280;45960;53.630;55.972;2023-04-25T04:56:20;101044.47;;;18.45;32.22
60087;BME280;45960;53.630;55.972;2023-04-25T04:57:42;101046.53;;;18.53;31.93
60087;BME280;45960;53.630;55.972;2023-04-25T04:59:09;101037.75;;;18.61;32.23
60087;BME280;45960;53.630;55.972;2023-04-25T05:00:29;101042.34;;;18.70;31.92
60087;BME280;45960;53.630;55.972;2023-04-25T05:02:05;101047.25;;;18.76;31.79
60087;BME280;45960;53.630;55.972;2023-04-25T05:03:30;101037.63;;;18.83;31.63
60087;BME280;45960;53.630;55.972;2023-04-25T05:04:49;101036.81;;;18.92;31.53
60087;BME280;45960;53.630;55.972;2023-04-25T05:06:11;101029.88;;;18.99;31.40
60087;BME280;45960;53.630;55.972;2023-04-25T05:07:35;101039.88;;;19.09;31.14
60087;BME280;45960;53.630;55.972;2023-04-25T05:08:41;101030.22;;;19.16;30.93
60087;BME280;45960;53.630;55.972;2023-04-25T05:09:59;101033.78;;;19.26;30.88
60087;BME280;45960;53.630;55.972;2023-04-25T05:11:19;101026.84;;;19.33;30.61
60087;BME280;45960;53.630;55.972;2023-04-25T05:12:36;101025.28;;;19.40;30.52
60087;BME280;45960;53.630;55.972;2023-04-25T05:13:55;101020.00;;;19.49;30.52
60087;BME280;45960;53.630;55.972;2023-04-25T05:15:17;101023.59;;;19.59;30.38
60087;BME280;45960;53.630;55.972;2023-04-25T05:16:37;101022.78;;;19.68;30.41
60087;BME280;45960;53.630;55.972;2023-04-25T05:17:55;101027.09;;;19.80;30.47
60087;BME280;45960;53.630;55.972;2023-04-25T05:19:25;101018.81;;;19.92;30.14
60087;BME280;45960;53.630;55.972;2023-04-25T05:20:49;101013.78;;;19.97;29.86
60087;BME280;45960;53.630;55.972;2023-04-25T05:22:21;101028.06;;;20.18;29.61
60087;BME280;45960;53.630;55.972;2023-04-25T05:23:33;101019.34;;;20.24;29.63
60087;BME280;45960;53.630;55.972;2023-04-25T05:24:56;101018.50;;;20.33;29.30
60087;BME280;45960;53.630;55.972;2023-04-25T05:26:09;101028.78;;;20.40;29.20
60087;BME280;45960;53.630;55.972;2023-04-25T05:27:40;101028.06;;;20.47;29.06
60087;BME280;45960;53.630;55.972;2023-04-25T05:29:01;101020.75;;;20.58;29.04
60087;BME280;45960;53.630;55.972;2023-04-25T05:30:25;101025.63;;;20.54;28.77
60087;BME280;45960;53.630;55.972;2023-04-25T05:31:46;101014.88;;;20.62;28.93
60087;BME280;45960;53.630;55.972;2023-04-25T05:32:50;101021.84;;;20.74;29.06
60087;BME280;45960;53.630;55.972;2023-04-25T05:33:52;100990.09;;;20.75;28.84
60087;BME280;45960;53.630;55.972;2023-04-25T05:34:53;101010.00;;;21.03;28.75
60087;BME280;45960;53.630;55.972;2023-04-25T05:35:59;101014.25;;;21.15;28.51
60087;BME280;45960;53.630;55.972;2023-04-25T05:37:01;101011.31;;;21.27;28.33
60087;BME280;45960;53.630;55.972;2023-04-25T05:38:03;101009.69;;;21.34;27.90
60087;BME280;45960;53.630;55.972;2023-04-25T05:39:27;100989.59;;;21.27;27.91